Time;durP1;ratioP1;P1;durP2;ratioP2;P2;SDS_P1;SDS_P2;PMS_P1;PMS_P2;Temp;Humidity;BMP_temperature;BMP_pressure;BME280_temperature;BME280_humidity;BME280_pressure;Samples;Min_cycle;Max_cycle;Signal;HPM_P1;HPM_P2
2022/01/16 00:00:17;;;;;;;234.93;87.43;;;;;;;4.99;67.67;102336.69;5243997;28;20942;-42
2022/01/16 00:05:42;;;;;;;218.85;85.97;;;;;;;5.05;67.62;102321.53;5224628;28;20547;-43
2022/01/16 00:08:15;;;;;;;222.75;84.55;;;;;;;5.04;67.56;102314.56;5242938;28;20882;-46
2022/01/16 00:10:47;;;;;;;205.80;78.60;;;;;;;5.05;67.72;102320.69;5247598;28;20430;-43
2022/01/16 00:13:21;;;;;;;216.85;83.70;;;;;;;5.07;67.72;102324.88;5249071;28;20416;-46
2022/01/16 00:15:53;;;;;;;210.57;82.28;;;;;;;5.04;67.68;102324.19;5246687;28;20406;-42
2022/01/16 00:18:28;;;;;;;223.88;84.75;;;;;;;5.16;67.80;102327.97;5247502;28;20418;-42
2022/01/16 00:21:00;;;;;;;215.40;82.80;;;;;;;5.20;67.66;102324.25;5250712;28;20413;-42
2022/01/16 00:23:33;;;;;;;211.00;83.10;;;;;;;5.21;67.85;102323.38;5251086;28;20408;-42
2022/01/16 00:26:05;;;;;;;211.23;80.17;;;;;;;5.18;67.76;102320.91;5248157;28;20407;-43
2022/01/16 00:28:39;;;;;;;207.40;81.57;;;;;;;5.22;67.80;102327.66;5244977;28;20877;-45
2022/01/16 00:31:11;;;;;;;186.20;75.65;;;;;;;5.23;67.83;102329.34;5246921;28;20410;-50
2022/01/16 00:33:44;;;;;;;209.50;82.25;;;;;;;5.23;67.68;102318.88;5245986;28;20891;-42
2022/01/16 00:36:19;;;;;;;201.15;80.30;;;;;;;5.23;67.94;102324.97;5245339;28;20427;-43
2022/01/16 00:38:54;;;;;;;198.18;78.80;;;;;;;5.21;67.83;102320.75;5249950;28;20414;-43
2022/01/16 00:41:26;;;;;;;207.05;81.03;;;;;;;5.25;67.97;102330.97;5246889;28;20425;-42
2022/01/16 00:44:00;;;;;;;213.13;84.85;;;;;;;5.27;67.94;102330.91;5251677;28;20467;-42
2022/01/16 00:46:33;;;;;;;204.57;82.13;;;;;;;5.29;67.85;102334.28;5248048;28;20429;-42
2022/01/16 00:49:05;;;;;;;207.73;82.38;;;;;;;5.23;68.03;102319.75;5240754;28;20487;-42
2022/01/16 00:51:38;;;;;;;200.43;82.75;;;;;;;5.35;67.79;102323.47;5242866;28;20415;-47
2022/01/16 00:54:10;;;;;;;217.25;83.57;;;;;;;5.34;67.95;102311.31;5247487;28;20911;-45
2022/01/16 00:56:42;;;;;;;207.18;81.88;;;;;;;5.39;67.90;102296.22;5246015;28;20421;-44
2022/01/16 00:59:16;;;;;;;228.02;89.07;;;;;;;5.36;68.00;102319.97;5249187;28;20422;-46
2022/01/16 01:01:49;;;;;;;220.65;90.20;;;;;;;5.36;68.09;102305.97;5242389;28;20429;-44
2022/01/16 01:04:21;;;;;;;209.60;84.90;;;;;;;5.39;68.05;102279.63;5239404;28;20822;-44
2022/01/16 01:06:55;;;;;;;223.55;83.43;;;;;;;5.39;67.97;102277.00;5245288;28;20446;-54
2022/01/16 01:09:27;;;;;;;210.85;84.53;;;;;;;5.43;67.97;102282.00;5239475;28;20661;-45
2022/01/16 01:11:59;;;;;;;219.67;85.30;;;;;;;5.48;68.05;102287.00;5243122;28;20484;-42
2022/01/16 01:14:41;;;;;;;213.70;85.55;;;;;;;5.52;68.03;102276.28;5248506;28;20449;-42
2022/01/16 01:17:20;;;;;;;199.18;80.80;;;;;;;5.52;68.05;102310.34;5246516;28;20498;-42
2022/01/16 01:19:53;;;;;;;216.77;85.85;;;;;;;5.51;68.11;102298.19;5248554;28;20417;-42
2022/01/16 01:22:25;;;;;;;215.68;83.55;;;;;;;5.54;68.05;102302.41;5243948;28;20501;-42
2022/01/16 01:24:57;;;;;;;221.20;83.78;;;;;;;5.59;68.08;102294.31;5245658;28;20423;-42
2022/01/16 01:27:33;;;;;;;222.93;87.90;;;;;;;5.58;67.94;102295.25;5245752;28;20521;-43
2022/01/16 01:30:09;;;;;;;219.23;84.15;;;;;;;5.61;68.08;102281.97;5246261;28;20419;-44
2022/01/16 01:32:43;;;;;;;215.43;85.43;;;;;;;5.62;68.13;102294.97;5241612;28;20415;-44
2022/01/16 01:35:18;;;;;;;233.05;88.05;;;;;;;5.62;68.31;102309.88;5241888;28;20421;-43
2022/01/16 01:37:51;;;;;;;219.23;86.75;;;;;;;5.50;68.22;102286.00;5242725;28;20916;-44
2022/01/16 01:40:26;;;;;;;212.13;85.03;;;;;;;5.64;68.14;102306.25;5252421;28;20436;-44
2022/01/16 01:51:01;;;;;;;208.55;84.15;;;;;;;5.69;68.02;102279.78;5244481;28;20418;-43
2022/01/16 01:51:44;;;;;;;212.18;83.57;;;;;;;5.70;68.20;102223.81;5247432;28;20855;-43
2022/01/16 01:54:17;;;;;;;213.45;86.63;;;;;;;5.69;68.28;102222.09;5244453;28;20923;-49
2022/01/16 01:56:49;;;;;;;204.75;81.80;;;;;;;5.71;68.28;102225.50;5240375;28;20427;-45
2022/01/16 01:59:21;;;;;;;206.95;83.75;;;;;;;5.73;68.15;102253.31;5247803;28;20917;-42
2022/01/16 02:01:55;;;;;;;206.00;82.50;;;;;;;5.76;68.06;102254.91;5244534;28;20425;-44
2022/01/16 02:04:27;;;;;;;203.27;81.28;;;;;;;5.78;68.06;102272.25;5244493;28;20779;-44
2022/01/16 02:07:00;;;;;;;204.48;80.50;;;;;;;5.60;67.99;102235.72;5246719;28;20476;-43
2022/01/16 02:09:33;;;;;;;191.05;79.40;;;;;;;5.85;68.04;102287.66;5243233;28;20499;-43
2022/01/16 02:12:08;;;;;;;196.48;79.43;;;;;;;5.83;68.14;102290.38;5246372;28;20770;-51
2022/01/16 02:14:55;;;;;;;195.68;82.65;;;;;;;5.88;68.25;102298.81;5244725;28;20480;-45
2022/01/16 02:29:07;;;;;;;178.77;77.85;;;;;;;5.93;68.13;102288.97;5236309;28;20425;-43
2022/01/16 02:31:41;;;;;;;195.80;79.55;;;;;;;5.94;68.23;102289.81;5240620;28;20402;-43
2022/01/16 02:34:33;;;;;;;194.55;82.55;;;;;;;5.96;68.18;102283.53;5245811;28;20434;-43
2022/01/16 02:37:10;;;;;;;200.63;80.38;;;;;;;6.02;68.24;102289.41;5245623;28;20471;-50
2022/01/16 02:39:49;;;;;;;191.18;80.88;;;;;;;6.06;68.22;102272.56;5248613;28;20414;-44
2022/01/16 02:42:27;;;;;;;188.90;78.97;;;;;;;6.09;68.27;102275.00;5239023;28;20477;-42
2022/01/16 02:45:03;;;;;;;195.77;80.03;;;;;;;6.00;68.06;102264.06;5244819;28;20417;-42
2022/01/16 02:47:35;;;;;;;185.63;76.75;;;;;;;6.09;68.13;102278.47;5245431;28;20406;-45
2022/01/16 02:50:09;;;;;;;187.75;77.35;;;;;;;6.09;68.14;102273.22;5236992;28;20402;-44
2022/01/16 02:52:43;;;;;;;198.27;82.60;;;;;;;6.09;68.13;102267.13;5243016;28;20426;-43
2022/01/16 02:55:19;;;;;;;196.67;80.67;;;;;;;6.10;68.19;102263.56;5236610;28;20858;-44
2022/01/16 02:57:55;;;;;;;189.05;77.85;;;;;;;6.11;68.17;102262.66;5238435;28;20834;-43
2022/01/16 03:00:27;;;;;;;190.25;78.78;;;;;;;6.11;68.36;102260.03;5245306;28;20416;-43
2022/01/16 03:02:59;;;;;;;191.55;79.22;;;;;;;6.11;68.25;102252.16;5240106;28;20427;-44
2022/01/16 03:05:33;;;;;;;193.13;82.60;;;;;;;6.11;68.28;102250.38;5237184;28;20416;-42
2022/01/16 03:08:06;;;;;;;193.60;79.85;;;;;;;6.11;68.25;102249.53;5239562;28;20415;-44
2022/01/16 03:13:31;;;;;;;188.73;78.78;;;;;;;6.15;68.25;102237.94;5240242;28;20911;-43
2022/01/16 03:16:03;;;;;;;196.73;79.90;;;;;;;6.18;68.29;102237.75;5237442;28;20409;-48
2022/01/16 03:24:15;;;;;;;171.55;73.88;;;;;;;6.20;68.29;102217.53;5237149;28;20410;-46
2022/01/16 03:26:49;;;;;;;182.85;73.38;;;;;;;6.18;68.27;102222.03;5241833;28;20413;-48
2022/01/16 03:29:21;;;;;;;166.52;70.38;;;;;;;6.19;68.31;102215.84;5244372;28;20906;-46
2022/01/16 03:31:54;;;;;;;155.35;70.30;;;;;;;6.22;68.18;102221.78;5244179;28;20415;-42
2022/01/16 03:34:27;;;;;;;158.57;68.53;;;;;;;6.25;68.29;102215.47;5245643;28;20503;-42
2022/01/16 03:37:00;;;;;;;157.80;71.60;;;;;;;6.29;68.26;102216.16;5247988;28;22040;-45
2022/01/16 03:39:32;;;;;;;158.32;65.43;;;;;;;6.29;68.34;102214.41;5247432;28;20416;-42
2022/01/16 03:42:08;;;;;;;149.63;67.18;;;;;;;6.24;68.14;102196.28;5246883;28;20871;-43
2022/01/16 03:44:40;;;;;;;154.40;67.97;;;;;;;6.33;68.24;102201.94;5248606;28;20418;-46
2022/01/16 03:47:12;;;;;;;161.25;67.47;;;;;;;6.36;68.13;102207.84;5243868;28;20410;-45
2022/01/16 03:49:45;;;;;;;151.32;67.95;;;;;;;6.38;68.07;102216.50;5244346;28;20398;-43
2022/01/16 03:52:17;;;;;;;144.43;66.18;;;;;;;6.41;68.16;102213.69;5248233;28;20410;-43
2022/01/16 03:54:49;;;;;;;143.83;67.23;;;;;;;6.39;68.06;102220.78;5245316;28;20467;-41
2022/01/16 03:57:23;;;;;;;141.90;66.45;;;;;;;6.44;67.90;102208.25;5251718;28;20891;-46
2022/01/16 03:59:55;;;;;;;143.33;63.20;;;;;;;6.51;68.24;102205.28;5245949;28;20496;-43
2022/01/16 04:02:28;;;;;;;130.18;61.97;;;;;;;6.51;68.22;102210.53;5246588;28;20425;-42
2022/01/16 04:05:00;;;;;;;134.88;60.50;;;;;;;6.53;68.06;102212.09;5247824;28;20783;-42
2022/01/16 04:07:35;;;;;;;138.02;56.90;;;;;;;6.56;68.10;102208.47;5247789;28;20413;-44
2022/01/16 04:10:09;;;;;;;87.20;40.20;;;;;;;6.58;68.17;102207.44;5251414;28;20890;-45
2022/01/16 04:12:45;;;;;;;58.88;33.72;;;;;;;6.61;68.23;102209.88;5242526;28;20774;-42
2022/01/16 04:15:33;;;;;;;56.77;32.57;;;;;;;6.63;68.05;102199.31;5245470;28;20918;-45
2022/01/16 04:18:07;;;;;;;60.83;30.50;;;;;;;6.73;68.16;102205.69;5247895;28;20774;-46
2022/01/16 04:20:39;;;;;;;58.17;29.80;;;;;;;6.77;68.09;102196.69;5243645;28;20432;-45
2022/01/16 04:23:12;;;;;;;47.95;28.10;;;;;;;6.81;68.07;102194.72;5242528;28;20409;-45
2022/01/16 04:25:44;;;;;;;53.05;29.40;;;;;;;6.85;68.21;102204.97;5250476;28;20402;-43
2022/01/16 04:28:23;;;;;;;50.28;27.50;;;;;;;6.88;68.10;102198.69;5247359;28;20424;-47
2022/01/16 04:30:55;;;;;;;52.80;28.13;;;;;;;6.89;68.06;102195.97;5240963;28;20426;-42
2022/01/16 04:33:28;;;;;;;48.42;27.73;;;;;;;6.93;68.10;102197.44;5247228;28;20922;-42
2022/01/16 04:36:01;;;;;;;48.30;26.30;;;;;;;6.96;68.02;102206.09;5248138;28;20426;-46
2022/01/16 04:38:34;;;;;;;45.33;26.70;;;;;;;6.98;68.06;102191.94;5248153;28;20398;-43
2022/01/16 04:43:58;;;;;;;43.92;26.23;;;;;;;6.95;68.21;102173.72;5248787;28;20422;-42
2022/01/16 04:46:32;;;;;;;46.63;25.60;;;;;;;7.08;68.18;102194.84;5242291;28;20902;-42
2022/01/16 04:49:05;;;;;;;46.25;26.48;;;;;;;7.13;68.15;102192.78;5242859;28;20877;-42
2022/01/16 04:51:37;;;;;;;45.08;24.40;;;;;;;7.15;68.16;102186.50;5246809;28;20954;-46
2022/01/16 04:54:09;;;;;;;50.20;27.03;;;;;;;7.18;68.15;102181.97;5243223;28;20490;-43
2022/01/16 04:56:42;;;;;;;52.67;26.95;;;;;;;7.22;68.00;102180.88;5247644;28;20404;-46
2022/01/16 04:59:16;;;;;;;49.35;27.08;;;;;;;7.26;68.04;102180.56;5242378;28;20935;-42
2022/01/16 05:01:48;;;;;;;45.97;24.83;;;;;;;7.27;68.12;102184.88;5241169;28;20408;-43
2022/01/16 05:04:20;;;;;;;54.50;26.20;;;;;;;7.30;68.05;102183.84;5247704;28;20984;-43
2022/01/16 05:06:53;;;;;;;48.17;26.13;;;;;;;7.33;68.16;102183.66;5247538;28;20435;-44
2022/01/16 05:09:25;;;;;;;45.30;26.05;;;;;;;7.35;68.13;102184.41;5243872;28;20405;-50
2022/01/16 05:12:00;;;;;;;45.97;25.05;;;;;;;7.38;68.07;102176.34;5243917;28;20402;-45
2022/01/16 05:17:24;;;;;;;40.15;22.48;;;;;;;7.42;68.13;102163.84;5246797;28;20426;-42
2022/01/16 05:19:56;;;;;;;44.65;24.33;;;;;;;7.45;68.19;102176.78;5250111;28;20441;-41
2022/01/16 05:22:29;;;;;;;47.58;23.17;;;;;;;7.47;68.24;102182.81;5246514;28;20430;-43
2022/01/16 05:25:01;;;;;;;51.20;22.37;;;;;;;7.49;68.20;102188.78;5249564;28;20737;-43
2022/01/16 05:27:33;;;;;;;37.47;20.75;;;;;;;7.51;68.17;102181.66;5248052;28;20409;-43
2022/01/16 05:30:09;;;;;;;32.88;20.63;;;;;;;7.53;68.15;102192.94;5246822;28;20786;-43
2022/01/16 05:32:41;;;;;;;36.30;20.67;;;;;;;7.56;68.18;102195.38;5250465;28;20432;-43
2022/01/16 05:35:24;;;;;;;54.38;20.60;;;;;;;7.57;68.13;102190.00;5245586;28;20412;-45
2022/01/16 05:37:56;;;;;;;36.13;19.67;;;;;;;7.58;68.09;102196.09;5246864;28;20561;-44
2022/01/16 05:40:29;;;;;;;35.45;17.80;;;;;;;7.61;68.21;102198.53;5241516;28;20417;-49
2022/01/16 05:43:01;;;;;;;31.05;17.35;;;;;;;7.62;68.17;102193.19;5243038;28;20436;-46
2022/01/16 05:45:35;;;;;;;35.60;18.35;;;;;;;7.66;68.26;102195.63;5246589;28;20417;-43
2022/01/16 05:48:07;;;;;;;36.40;18.40;;;;;;;7.64;68.31;102190.47;5250458;28;20414;-42
2022/01/16 05:50:40;;;;;;;30.77;16.80;;;;;;;7.69;68.21;102193.66;5243967;28;20402;-45
2022/01/16 05:53:13;;;;;;;37.00;17.63;;;;;;;7.70;68.19;102183.97;5245344;28;20406;-47
2022/01/16 05:55:45;;;;;;;31.52;17.20;;;;;;;7.71;68.15;102194.41;5246633;28;20512;-43
2022/01/16 05:58:17;;;;;;;31.60;16.27;;;;;;;7.72;68.00;102190.81;5243366;28;20500;-47
2022/01/16 06:00:51;;;;;;;28.55;14.80;;;;;;;7.75;68.01;102182.72;5244061;28;20407;-43
2022/01/16 06:03:23;;;;;;;33.97;15.13;;;;;;;7.76;68.08;102175.69;5238921;28;20919;-46
2022/01/16 06:05:56;;;;;;;30.92;13.88;;;;;;;7.76;68.11;102178.31;5239319;28;20763;-43
2022/01/16 06:08:28;;;;;;;36.65;13.98;;;;;;;7.77;68.06;102186.13;5241725;28;20909;-44
2022/01/16 06:11:00;;;;;;;25.70;13.37;;;;;;;7.79;68.10;102181.59;5247767;28;20763;-42
2022/01/16 06:13:32;;;;;;;25.45;13.30;;;;;;;7.82;68.10;102178.75;5239670;28;20422;-43
2022/01/16 06:16:06;;;;;;;33.00;13.57;;;;;;;7.82;68.17;102176.13;5247136;28;20406;-42
2022/01/16 06:18:39;;;;;;;24.00;10.88;;;;;;;7.84;68.03;102191.81;5246224;28;20390;-47
2022/01/16 06:21:11;;;;;;;20.40;10.43;;;;;;;7.85;68.14;102207.50;5244112;28;20482;-43
2022/01/16 06:23:43;;;;;;;25.17;10.20;;;;;;;7.86;68.17;102188.13;5245400;28;20783;-44
2022/01/16 06:26:16;;;;;;;17.38;9.35;;;;;;;7.86;68.16;102193.38;5244976;28;20401;-44
2022/01/16 06:28:48;;;;;;;26.38;8.55;;;;;;;7.88;68.17;102190.69;5247317;28;20767;-43
2022/01/16 06:31:22;;;;;;;22.60;8.57;;;;;;;7.91;68.17;102190.47;5246866;28;20772;-42
2022/01/16 06:33:54;;;;;;;17.52;7.57;;;;;;;7.93;68.00;102187.72;5246262;28;20426;-43
2022/01/16 06:36:26;;;;;;;17.67;7.63;;;;;;;7.95;68.06;102188.50;5248313;28;20878;-43
2022/01/16 06:39:00;;;;;;;18.17;6.43;;;;;;;7.97;68.02;102194.50;5243021;28;20425;-42
2022/01/16 06:41:32;;;;;;;16.90;6.47;;;;;;;7.99;68.14;102201.38;5240644;28;20410;-43
2022/01/16 06:44:06;;;;;;;12.43;6.50;;;;;;;8.00;68.17;102204.84;5243320;28;20406;-43
2022/01/16 06:46:40;;;;;;;14.65;6.40;;;;;;;8.02;68.15;102216.06;5242930;28;20405;-45
2022/01/16 06:49:12;;;;;;;12.68;5.30;;;;;;;8.05;68.02;102221.13;5246877;28;20406;-42
2022/01/16 06:51:45;;;;;;;12.65;6.25;;;;;;;8.05;67.99;102224.66;5245146;28;20402;-45
2022/01/16 06:54:18;;;;;;;20.48;5.53;;;;;;;8.08;68.04;102229.72;5245782;28;20425;-42
2022/01/16 06:56:50;;;;;;;10.60;5.00;;;;;;;8.11;67.84;102223.38;5246614;28;20390;-43
2022/01/16 06:59:22;;;;;;;11.98;5.25;;;;;;;8.13;67.87;102234.66;5244399;28;20766;-43
2022/01/16 07:01:56;;;;;;;9.40;5.45;;;;;;;8.14;67.66;102233.69;5248970;28;20917;-43
2022/01/16 07:04:28;;;;;;;11.83;5.20;;;;;;;8.16;67.72;102236.25;5242190;28;20766;-42
2022/01/16 07:07:00;;;;;;;12.37;5.63;;;;;;;8.17;67.68;102244.03;5243248;28;20782;-43
2022/01/16 07:09:33;;;;;;;11.30;5.32;;;;;;;8.19;67.61;102252.69;5242091;28;20410;-50
2022/01/16 07:12:07;;;;;;;13.73;5.55;;;;;;;8.18;67.43;102244.91;5244230;28;20760;-43
2022/01/16 07:14:39;;;;;;;14.55;5.38;;;;;;;8.17;67.44;102244.03;5237128;28;20410;-45
2022/01/16 07:17:13;;;;;;;10.68;5.47;;;;;;;8.20;67.26;102253.53;5245648;28;20402;-42
2022/01/16 07:19:45;;;;;;;10.30;5.30;;;;;;;8.22;66.94;102257.75;5236349;28;20783;-44
2022/01/16 07:22:21;;;;;;;9.70;5.13;;;;;;;8.24;67.10;102261.13;5247674;28;20782;-47
2022/01/16 07:24:54;;;;;;;14.48;5.82;;;;;;;8.26;67.01;102264.50;5241855;28;20931;-44
2022/01/16 07:27:26;;;;;;;11.88;6.25;;;;;;;8.27;66.84;102260.94;5241515;28;20494;-42
2022/01/16 07:29:58;;;;;;;12.57;6.27;;;;;;;8.27;66.66;102266.19;5244541;28;21085;-44
2022/01/16 07:32:32;;;;;;;11.85;6.00;;;;;;;8.30;66.54;102270.44;5245246;28;20493;-42
2022/01/16 07:35:06;;;;;;;15.30;6.40;;;;;;;8.31;66.52;102272.94;5243698;28;20398;-47
2022/01/16 07:37:38;;;;;;;13.75;6.80;;;;;;;8.31;66.31;102272.94;5246783;28;20406;-45
2022/01/16 07:40:12;;;;;;;11.75;6.38;;;;;;;8.32;66.19;102274.63;5239939;28;20403;-43
2022/01/16 07:42:45;;;;;;;18.17;6.90;;;;;;;8.35;66.09;102285.91;5239305;28;20427;-43
2022/01/16 07:45:17;;;;;;;14.93;7.30;;;;;;;8.36;66.19;102290.22;5243872;28;20901;-43
2022/01/16 07:47:50;;;;;;;24.65;7.35;;;;;;;8.37;66.12;102290.13;5246370;28;20439;-43
2022/01/16 07:50:23;;;;;;;15.75;6.50;;;;;;;8.38;65.90;102285.69;5247692;28;20410;-42
2022/01/16 07:52:55;;;;;;;16.67;7.13;;;;;;;8.40;65.79;102297.84;5247439;28;20512;-43
2022/01/16 07:55:28;;;;;;;14.07;7.38;;;;;;;8.41;65.72;102294.28;5236543;28;20418;-45
2022/01/16 07:58:00;;;;;;;11.38;6.60;;;;;;;8.40;65.52;102286.50;5248611;28;20419;-46
2022/01/16 08:00:34;;;;;;;17.38;6.53;;;;;;;8.42;65.57;102301.22;5238325;28;20438;-44
2022/01/16 08:03:08;;;;;;;17.85;7.43;;;;;;;8.46;65.40;102317.69;5235591;28;20917;-42
2022/01/16 08:05:40;;;;;;;18.30;7.32;;;;;;;8.48;65.35;102318.41;5246659;28;20729;-43
2022/01/16 08:08:12;;;;;;;14.32;7.30;;;;;;;8.46;65.40;102309.78;5239214;28;20407;-42
2022/01/16 08:10:44;;;;;;;18.57;7.70;;;;;;;8.52;65.11;102312.84;5237652;28;20473;-47
2022/01/16 08:13:17;;;;;;;21.30;6.35;;;;;;;8.55;64.99;102309.19;5243329;28;20414;-51
2022/01/16 08:15:49;;;;;;;13.48;6.38;;;;;;;8.54;65.09;102315.38;5239477;28;20417;-44
2022/01/16 08:18:23;;;;;;;17.77;6.47;;;;;;;8.56;64.97;102313.50;5245116;28;20501;-43
2022/01/16 08:20:55;;;;;;;14.85;7.00;;;;;;;8.55;65.09;102306.56;5240210;28;20865;-43
2022/01/16 08:23:27;;;;;;;13.63;6.82;;;;;;;8.58;64.98;102311.63;5246145;28;20417;-47
2022/01/16 08:26:01;;;;;;;15.88;6.85;;;;;;;8.60;64.99;102307.06;5251462;28;20418;-43
2022/01/16 08:28:33;;;;;;;20.17;7.18;;;;;;;8.62;64.81;102304.34;5248829;28;20485;-43
2022/01/16 08:31:06;;;;;;;22.13;8.18;;;;;;;8.63;64.71;102309.50;5246320;28;20413;-43
2022/01/16 08:33:39;;;;;;;21.50;9.13;;;;;;;8.66;64.63;102313.72;5247053;28;20753;-43
2022/01/16 08:36:12;;;;;;;20.92;9.10;;;;;;;8.67;64.69;102303.13;5248290;28;20422;-43
2022/01/16 08:38:45;;;;;;;18.13;8.10;;;;;;;8.69;64.63;102317.00;5244575;28;20987;-46
2022/01/16 08:41:17;;;;;;;25.53;8.87;;;;;;;8.69;64.57;102309.09;5250733;28;20428;-43
2022/01/16 08:43:50;;;;;;;18.08;8.50;;;;;;;8.71;64.51;102307.22;5251067;28;20438;-46
2022/01/16 08:46:22;;;;;;;18.33;8.73;;;;;;;8.75;64.49;102308.69;5252509;28;20429;-45
2022/01/16 08:48:56;;;;;;;20.53;8.77;;;;;;;8.78;64.30;102313.75;5248272;28;20604;-44
2022/01/16 08:51:29;;;;;;;20.27;8.57;;;;;;;8.81;64.26;102322.41;5243407;28;20499;-41
2022/01/16 08:54:01;;;;;;;25.30;9.03;;;;;;;8.81;64.27;102317.16;5253442;28;20410;-43
2022/01/16 08:56:34;;;;;;;17.75;8.95;;;;;;;8.83;64.31;102320.53;5249383;28;20430;-43
2022/01/16 08:59:07;;;;;;;17.40;8.90;;;;;;;8.78;64.09;102312.94;5246224;28;20414;-43
2022/01/16 09:01:40;;;;;;;20.15;9.48;;;;;;;8.87;64.16;102322.00;5242789;28;20417;-42
2022/01/16 09:04:13;;;;;;;20.45;9.10;;;;;;;8.89;64.06;102328.03;5234594;28;20406;-43
2022/01/16 09:06:45;;;;;;;20.58;9.35;;;;;;;8.89;64.11;102333.31;5242710;28;20407;-46
2022/01/16 09:09:18;;;;;;;18.02;8.95;;;;;;;8.90;63.97;102332.34;5253667;28;20390;-42
2022/01/16 09:11:50;;;;;;;22.48;9.15;;;;;;;8.91;64.08;102344.56;5233646;28;20895;-44
2022/01/16 09:14:22;;;;;;;22.02;8.30;;;;;;;8.90;64.18;102342.88;5234264;28;20920;-44
2022/01/16 09:16:55;;;;;;;16.65;7.78;;;;;;;8.91;64.03;102334.88;5239392;28;20515;-45
2022/01/16 09:19:29;;;;;;;22.00;9.70;;;;;;;8.92;64.04;102335.69;5243288;28;20518;-44
2022/01/16 09:22:01;;;;;;;18.85;8.88;;;;;;;8.95;63.97;102336.38;5241461;28;20780;-49
2022/01/16 09:24:34;;;;;;;19.85;10.02;;;;;;;8.96;63.98;102345.13;5244877;28;20413;-44
2022/01/16 09:27:07;;;;;;;22.38;9.55;;;;;;;9.00;63.83;102351.84;5246522;28;20414;-46
2022/01/16 09:29:39;;;;;;;23.47;9.30;;;;;;;9.02;63.86;102352.59;5245097;28;20414;-44
2022/01/16 09:32:13;;;;;;;22.83;10.57;;;;;;;9.03;63.87;102350.81;5248390;28;20393;-44
2022/01/16 09:34:46;;;;;;;24.52;9.88;;;;;;;9.04;63.66;102349.84;5242828;28;20421;-43
2022/01/16 09:37:19;;;;;;;20.33;10.07;;;;;;;9.06;63.70;102359.34;5245641;28;20805;-43
2022/01/16 09:39:54;;;;;;;21.15;9.93;;;;;;;9.09;63.57;102369.69;5243262;28;20409;-43
2022/01/16 09:42:27;;;;;;;24.80;10.13;;;;;;;9.11;63.46;102367.81;5247277;28;20434;-43
2022/01/16 09:44:59;;;;;;;24.13;9.93;;;;;;;9.14;63.43;102372.03;5242647;28;20412;-45
2022/01/16 09:47:32;;;;;;;18.53;8.87;;;;;;;9.14;63.47;102362.34;5242934;28;20406;-44
2022/01/16 09:50:07;;;;;;;22.60;9.93;;;;;;;9.13;63.46;102368.53;5246045;28;20396;-46
2022/01/16 09:52:42;;;;;;;22.65;9.27;;;;;;;9.16;63.31;102373.59;5243447;28;20778;-44
2022/01/16 09:55:15;;;;;;;20.00;9.73;;;;;;;9.16;63.38;102381.50;5238226;28;20526;-52
2022/01/16 09:57:48;;;;;;;21.60;9.73;;;;;;;8.91;63.32;102334.03;5244748;28;20425;-47
2022/01/16 10:00:24;;;;;;;21.80;8.48;;;;;;;9.21;63.35;102389.97;5241468;28;20418;-49
2022/01/16 10:02:57;;;;;;;16.52;8.15;;;;;;;9.21;63.30;102389.13;5236175;28;20762;-47
2022/01/16 10:05:34;;;;;;;22.70;9.48;;;;;;;9.22;63.22;102396.91;5239012;28;20414;-44
2022/01/16 10:08:11;;;;;;;18.73;8.95;;;;;;;9.24;63.13;102394.19;5236337;28;20530;-46
2022/01/16 10:10:45;;;;;;;17.98;8.82;;;;;;;9.28;63.11;102394.81;5237382;28;20790;-46
2022/01/16 10:13:25;;;;;;;20.65;9.88;;;;;;;9.28;63.01;102397.47;5236023;28;20771;-48
2022/01/16 10:15:59;;;;;;;21.98;8.73;;;;;;;9.31;63.03;102402.53;5233711;28;20454;-44
2022/01/16 10:18:36;;;;;;;21.58;9.27;;;;;;;9.32;62.99;102406.84;5241408;28;20414;-43
2022/01/16 10:21:11;;;;;;;19.13;8.02;;;;;;;9.33;62.97;102403.28;5237279;28;20423;-50
2022/01/16 10:23:45;;;;;;;17.95;8.05;;;;;;;9.33;62.97;102411.19;5237232;28;20418;-46
2022/01/16 10:26:22;;;;;;;23.73;8.10;;;;;;;9.33;63.05;102406.75;5235470;28;20874;-44
2022/01/16 10:28:54;;;;;;;18.67;7.22;;;;;;;9.34;62.94;102400.53;5242456;28;20407;-45
2022/01/16 10:31:29;;;;;;;20.20;7.60;;;;;;;9.35;63.02;102401.34;5241821;28;20899;-43
2022/01/16 10:34:01;;;;;;;17.13;6.90;;;;;;;9.36;62.94;102387.25;5231772;28;20414;-44
2022/01/16 10:36:37;;;;;;;18.00;7.13;;;;;;;9.38;62.90;102387.97;5233101;28;20457;-48
2022/01/16 10:39:12;;;;;;;15.90;7.40;;;;;;;9.39;62.83;102385.25;5239878;28;20853;-45
2022/01/16 10:41:44;;;;;;;19.33;6.80;;;;;;;9.43;62.80;102393.78;5233931;28;21031;-47
2022/01/16 10:44:31;;;;;;;20.60;7.70;;;;;;;9.45;62.90;102391.91;5233503;28;20419;-46
2022/01/16 10:47:27;;;;;;;15.52;7.35;;;;;;;9.49;63.02;102398.63;5236698;28;20459;-45
2022/01/16 10:50:10;;;;;;;24.05;8.48;;;;;;;9.53;62.73;102389.56;5234448;28;20429;-49
2022/01/16 10:52:59;;;;;;;21.77;8.52;;;;;;;9.59;62.74;102391.78;5234873;28;20440;-48
2022/01/16 10:55:40;;;;;;;20.60;10.05;;;;;;;9.63;62.53;102395.03;5236415;28;20785;-44
2022/01/16 10:58:15;;;;;;;24.57;9.03;;;;;;;9.66;62.50;102406.25;5235472;28;20771;-44
2022/01/16 11:00:52;;;;;;;17.95;7.88;;;;;;;9.67;62.63;102407.94;5234352;28;20782;-44
2022/01/16 11:03:26;;;;;;;16.03;7.20;;;;;;;9.68;62.53;102403.50;5242866;28;20805;-45
2022/01/16 11:05:58;;;;;;;12.73;6.70;;;;;;;9.70;62.53;102397.19;5238318;28;20413;-45
2022/01/16 11:08:33;;;;;;;15.80;6.82;;;;;;;9.72;62.45;102415.53;5238459;28;20434;-45
2022/01/16 11:11:07;;;;;;;15.20;6.18;;;;;;;9.72;62.38;102419.97;5240117;28;20424;-49
2022/01/16 11:13:40;;;;;;;18.97;6.67;;;;;;;9.75;62.42;102414.47;5239112;28;20506;-45
2022/01/16 11:16:12;;;;;;;13.38;6.00;;;;;;;9.73;62.43;102416.38;5236020;28;20421;-46
2022/01/16 11:18:49;;;;;;;14.50;6.20;;;;;;;9.69;62.37;102400.78;5229752;28;20898;-44
2022/01/16 11:21:31;;;;;;;16.25;6.38;;;;;;;9.76;62.24;102416.19;5233415;28;20485;-45
2022/01/16 11:24:25;;;;;;;10.30;5.90;;;;;;;9.78;62.26;102414.25;5244651;28;20416;-44
2022/01/16 11:26:59;;;;;;;17.65;6.97;;;;;;;9.80;62.14;102407.09;5232372;28;20457;-44
2022/01/16 11:29:32;;;;;;;11.35;6.25;;;;;;;9.79;62.14;102402.78;5244476;28;20406;-49
2022/01/16 11:32:06;;;;;;;13.27;6.40;;;;;;;9.82;62.06;102395.47;5240222;28;20461;-45
2022/01/16 11:34:39;;;;;;;13.07;6.17;;;;;;;9.54;62.14;102354.34;5245247;28;20766;-45
2022/01/16 11:37:12;;;;;;;14.48;5.65;;;;;;;9.87;62.09;102413.63;5239680;28;20427;-44
2022/01/16 11:39:46;;;;;;;13.40;6.65;;;;;;;9.93;61.97;102415.84;5233240;28;20861;-47
2022/01/16 11:43:12;;;;;;;13.55;5.93;;;;;;;9.98;61.79;102416.38;5237862;28;20434;-45
2022/01/16 11:45:51;;;;;;;15.20;6.38;;;;;;;9.99;61.92;102412.78;5236136;28;22366;-47
2022/01/16 11:48:42;;;;;;;15.80;7.53;;;;;;;10.00;61.82;102406.53;5235860;28;20430;-44
2022/01/16 11:52:02;;;;;;;14.43;6.20;;;;;;;10.04;61.65;102410.66;5241171;28;20487;-50
2022/01/16 11:54:40;;;;;;;12.55;6.25;;;;;;;10.03;61.73;102414.22;5233086;28;20810;-46
2022/01/16 11:57:32;;;;;;;14.87;6.30;;;;;;;10.06;61.67;102419.28;5239681;28;20410;-45
2022/01/16 12:00:14;;;;;;;11.38;6.50;;;;;;;10.09;61.51;102408.53;5239635;28;20414;-50
2022/01/16 12:02:52;;;;;;;14.73;5.78;;;;;;;10.12;61.47;102416.22;5247463;28;20409;-46
2022/01/16 12:05:27;;;;;;;11.73;6.60;;;;;;;10.15;61.49;102405.44;5247165;28;20418;-45
2022/01/16 12:08:09;;;;;;;14.60;6.07;;;;;;;10.16;61.32;102414.25;5247962;28;20415;-43
2022/01/16 12:10:54;;;;;;;15.20;6.67;;;;;;;10.11;61.17;102384.66;5251023;28;20418;-51
2022/01/16 12:14:00;;;;;;;12.32;6.13;;;;;;;10.19;61.18;102407.88;5249224;28;20418;-46
2022/01/16 12:16:54;;;;;;;11.30;5.88;;;;;;;10.21;61.22;102422.66;5249801;28;20438;-43
2022/01/16 12:19:47;;;;;;;19.40;7.20;;;;;;;10.27;61.09;102416.13;5242072;28;20436;-43
2022/01/16 12:22:43;;;;;;;16.73;8.23;;;;;;;10.32;60.97;102420.16;5240321;28;20905;-45
2022/01/16 12:25:21;;;;;;;28.45;12.35;;;;;;;10.34;61.09;102428.81;5244907;28;20451;-49
2022/01/16 12:27:56;;;;;;;36.53;15.60;;;;;;;10.40;60.88;102427.50;5249777;28;20414;-44